sensor_id;sensor_type;location;lat;lon;timestamp;P1;durP1;ratioP1;P2;durP2;ratioP2
73909;SDS011;62245;48.070;7.874;2022-08-18T03:02:14;5.68;;;2.90;;
73909;SDS011;62245;48.070;7.874;2022-08-18T03:04:39;5.38;;;3.50;;
73909;SDS011;62245;48.070;7.874;2022-08-18T03:07:05;6.93;;;3.25;;
73909;SDS011;62245;48.070;7.874;2022-08-18T03:09:32;5.93;;;3.05;;
73909;SDS011;62245;48.070;7.874;2022-08-18T03:11:58;5.38;;;3.50;;
73909;SDS011;62245;48.070;7.874;2022-08-18T03:14:24;6.95;;;3.63;;
73909;SDS011;62245;48.070;7.874;2022-08-18T03:16:50;6.15;;;3.75;;
73909;SDS011;62245;48.070;7.874;2022-08-18T03:19:15;5.73;;;3.40;;
73909;SDS011;62245;48.070;7.874;2022-08-18T03:21:41;7.40;;;3.47;;
73909;SDS011;62245;48.070;7.874;2022-08-18T03:24:09;7.30;;;3.80;;
73909;SDS011;62245;48.070;7.874;2022-08-18T03:26:38;5.85;;;3.40;;
73909;SDS011;62245;48.070;7.874;2022-08-18T03:29:05;6.03;;;3.53;;
73909;SDS011;62245;48.070;7.874;2022-08-18T03:31:30;6.03;;;3.50;;
73909;SDS011;62245;48.070;7.874;2022-08-18T03:33:56;7.90;;;3.83;;
73909;SDS011;62245;48.070;7.874;2022-08-18T03:36:23;6.45;;;3.88;;
73909;SDS011;62245;48.070;7.874;2022-08-18T03:38:51;6.13;;;3.65;;
73909;SDS011;62245;48.070;7.874;2022-08-18T03:41:18;7.15;;;3.70;;
73909;SDS011;62245;48.070;7.874;2022-08-18T03:43:46;7.22;;;3.50;;
73909;SDS011;62245;48.070;7.874;2022-08-18T03:46:13;6.20;;;3.83;;
73909;SDS011;62245;48.070;7.874;2022-08-18T03:48:39;6.30;;;3.50;;
73909;SDS011;62245;48.070;7.874;2022-08-18T03:51:07;6.53;;;3.63;;
73909;SDS011;62245;48.070;7.874;2022-08-18T03:53:39;7.55;;;3.60;;
73909;SDS011;62245;48.070;7.874;2022-08-18T03:56:08;7.55;;;3.78;;
73909;SDS011;62245;48.070;7.874;2022-08-18T03:58:40;6.28;;;3.53;;
73909;SDS011;62245;48.070;7.874;2022-08-18T04:01:10;6.75;;;3.75;;
73909;SDS011;62245;48.070;7.874;2022-08-18T04:03:39;6.32;;;3.92;;
73909;SDS011;62245;48.070;7.874;2022-08-18T04:06:06;6.15;;;3.42;;
73909;SDS011;62245;48.070;7.874;2022-08-18T04:08:31;8.05;;;3.70;;
73909;SDS011;62245;48.070;7.874;2022-08-18T04:10:57;6.27;;;3.93;;
73909;SDS011;62245;48.070;7.874;2022-08-18T04:13:22;6.93;;;3.73;;
73909;SDS011;62245;48.070;7.874;2022-08-18T04:15:48;6.60;;;3.47;;
73909;SDS011;62245;48.070;7.874;2022-08-18T04:18:13;6.23;;;3.23;;
73909;SDS011;62245;48.070;7.874;2022-08-18T04:20:38;5.70;;;3.40;;
73909;SDS011;62245;48.070;7.874;2022-08-18T04:23:04;6.53;;;3.63;;
73909;SDS011;62245;48.070;7.874;2022-08-18T04:25:30;6.35;;;3.50;;
73909;SDS011;62245;48.070;7.874;2022-08-18T04:27:56;5.70;;;3.65;;
73909;SDS011;62245;48.070;7.874;2022-08-18T04:30:24;6.90;;;3.30;;
73909;SDS011;62245;48.070;7.874;2022-08-18T04:32:50;5.60;;;3.50;;
73909;SDS011;62245;48.070;7.874;2022-08-18T04:35:15;7.37;;;3.40;;
73909;SDS011;62245;48.070;7.874;2022-08-18T04:37:41;5.88;;;3.20;;
73909;SDS011;62245;48.070;7.874;2022-08-18T04:40:07;6.03;;;3.83;;
73909;SDS011;62245;48.070;7.874;2022-08-18T04:42:34;5.30;;;3.20;;
73909;SDS011;62245;48.070;7.874;2022-08-18T04:44:59;5.53;;;3.20;;
73909;SDS011;62245;48.070;7.874;2022-08-18T04:47:24;5.43;;;3.57;;
73909;SDS011;62245;48.070;7.874;2022-08-18T04:49:50;5.40;;;2.83;;
73909;SDS011;62245;48.070;7.874;2022-08-18T04:52:15;6.77;;;3.10;;
73909;SDS011;62245;48.070;7.874;2022-08-18T04:54:59;6.05;;;3.60;;
73909;SDS011;62245;48.070;7.874;2022-08-18T04:57:25;5.95;;;3.40;;
73909;SDS011;62245;48.070;7.874;2022-08-18T04:59:51;5.90;;;3.22;;
73909;SDS011;62245;48.070;7.874;2022-08-18T05:02:17;7.22;;;3.40;;
73909;SDS011;62245;48.070;7.874;2022-08-18T05:04:44;5.97;;;3.35;;
73909;SDS011;62245;48.070;7.874;2022-08-18T05:07:11;6.93;;;3.72;;
73909;SDS011;62245;48.070;7.874;2022-08-18T05:09:38;6.20;;;3.90;;
73909;SDS011;62245;48.070;7.874;2022-08-18T05:12:06;6.30;;;3.50;;
73909;SDS011;62245;48.070;7.874;2022-08-18T05:14:33;6.18;;;3.30;;
73909;SDS011;62245;48.070;7.874;2022-08-18T05:17:00;5.70;;;3.20;;
73909;SDS011;62245;48.070;7.874;2022-08-18T05:19:26;5.85;;;3.17;;
73909;SDS011;62245;48.070;7.874;2022-08-18T05:21:53;5.35;;;3.10;;
73909;SDS011;62245;48.070;7.874;2022-08-18T05:24:20;6.85;;;3.63;;
73909;SDS011;62245;48.070;7.874;2022-08-18T05:26:49;5.65;;;3.42;;
73909;SDS011;62245;48.070;7.874;2022-08-18T05:29:16;6.10;;;3.47;;
73909;SDS011;62245;48.070;7.874;2022-08-18T05:31:41;5.37;;;3.27;;
73909;SDS011;62245;48.070;7.874;2022-08-18T05:34:07;8.07;;;3.72;;
73909;SDS011;62245;48.070;7.874;2022-08-18T05:36:50;7.43;;;3.42;;
73909;SDS011;62245;48.070;7.874;2022-08-18T05:39:24;7.93;;;4.68;;
73909;SDS011;62245;48.070;7.874;2022-08-18T05:44:28;7.10;;;4.80;;
73909;SDS011;62245;48.070;7.874;2022-08-18T05:46:58;6.90;;;3.97;;
73909;SDS011;62245;48.070;7.874;2022-08-18T05:49:29;7.32;;;3.85;;
73909;SDS011;62245;48.070;7.874;2022-08-18T05:51:58;6.68;;;4.22;;
73909;SDS011;62245;48.070;7.874;2022-08-18T05:54:35;6.13;;;3.15;;
73909;SDS011;62245;48.070;7.874;2022-08-18T05:57:25;7.20;;;4.40;;
73909;SDS011;62245;48.070;7.874;2022-08-18T05:59:54;6.65;;;3.92;;
73909;SDS011;62245;48.070;7.874;2022-08-18T06:05:03;7.57;;;3.97;;
73909;SDS011;62245;48.070;7.874;2022-08-18T06:07:39;6.65;;;3.78;;
73909;SDS011;62245;48.070;7.874;2022-08-18T06:12:39;7.70;;;4.45;;
73909;SDS011;62245;48.070;7.874;2022-08-18T06:15:53;7.45;;;3.80;;
73909;SDS011;62245;48.070;7.874;2022-08-18T06:18:17;5.85;;;3.60;;
73909;SDS011;62245;48.070;7.874;2022-08-18T06:29:28;6.88;;;3.90;;
73909;SDS011;62245;48.070;7.874;2022-08-18T06:32:06;7.28;;;4.18;;
73909;SDS011;62245;48.070;7.874;2022-08-18T06:34:54;7.63;;;4.90;;
73909;SDS011;62245;48.070;7.874;2022-08-18T06:37:35;8.10;;;4.78;;
73909;SDS011;62245;48.070;7.874;2022-08-18T06:40:25;8.75;;;4.72;;
73909;SDS011;62245;48.070;7.874;2022-08-18T06:42:51;6.03;;;3.75;;
73909;SDS011;62245;48.070;7.874;2022-08-18T06:45:17;6.97;;;3.70;;
73909;SDS011;62245;48.070;7.874;2022-08-18T06:50:18;6.80;;;3.57;;
73909;SDS011;62245;48.070;7.874;2022-08-18T06:52:54;6.97;;;4.28;;
73909;SDS011;62245;48.070;7.874;2022-08-18T06:55:36;6.75;;;3.95;;
73909;SDS011;62245;48.070;7.874;2022-08-18T06:58:03;6.03;;;3.80;;
73909;SDS011;62245;48.070;7.874;2022-08-18T07:00:32;7.70;;;4.20;;
73909;SDS011;62245;48.070;7.874;2022-08-18T07:03:06;6.25;;;3.88;;
73909;SDS011;62245;48.070;7.874;2022-08-18T07:05:36;6.45;;;4.05;;
73909;SDS011;62245;48.070;7.874;2022-08-18T07:08:27;7.18;;;4.43;;
73909;SDS011;62245;48.070;7.874;2022-08-18T07:10:57;7.70;;;5.05;;
73909;SDS011;62245;48.070;7.874;2022-08-18T07:13:38;7.28;;;4.80;;
73909;SDS011;62245;48.070;7.874;2022-08-18T07:16:29;7.78;;;4.80;;
73909;SDS011;62245;48.070;7.874;2022-08-18T07:19:08;7.70;;;4.90;;
73909;SDS011;62245;48.070;7.874;2022-08-18T07:21:36;6.55;;;3.67;;
73909;SDS011;62245;48.070;7.874;2022-08-18T07:24:08;6.88;;;4.15;;
73909;SDS011;62245;48.070;7.874;2022-08-18T07:29:39;7.72;;;4.55;;
73909;SDS011;62245;48.070;7.874;2022-08-18T07:32:22;8.60;;;4.40;;
73909;SDS011;62245;48.070;7.874;2022-08-18T07:34:51;6.80;;;4.38;;
73909;SDS011;62245;48.070;7.874;2022-08-18T07:37:27;8.55;;;4.35;;
73909;SDS011;62245;48.070;7.874;2022-08-18T07:48:17;7.20;;;4.15;;
73909;SDS011;62245;48.070;7.874;2022-08-18T07:51:32;6.50;;;3.90;;
73909;SDS011;62245;48.070;7.874;2022-08-18T07:53:58;7.10;;;4.35;;
73909;SDS011;62245;48.070;7.874;2022-08-18T07:56:31;6.78;;;3.83;;
73909;SDS011;62245;48.070;7.874;2022-08-18T07:59:38;5.70;;;3.67;;
73909;SDS011;62245;48.070;7.874;2022-08-18T08:02:23;6.25;;;4.00;;
73909;SDS011;62245;48.070;7.874;2022-08-18T08:05:06;6.68;;;4.00;;
73909;SDS011;62245;48.070;7.874;2022-08-18T08:08:01;7.65;;;4.00;;
73909;SDS011;62245;48.070;7.874;2022-08-18T08:10:41;7.03;;;4.10;;
73909;SDS011;62245;48.070;7.874;2022-08-18T08:21:51;6.85;;;3.75;;
73909;SDS011;62245;48.070;7.874;2022-08-18T08:24:28;9.18;;;3.80;;
73909;SDS011;62245;48.070;7.874;2022-08-18T08:30:02;6.95;;;4.60;;
73909;SDS011;62245;48.070;7.874;2022-08-18T08:32:40;8.80;;;4.13;;
73909;SDS011;62245;48.070;7.874;2022-08-18T08:35:18;7.30;;;4.70;;
73909;SDS011;62245;48.070;7.874;2022-08-18T08:38:02;8.18;;;4.40;;
73909;SDS011;62245;48.070;7.874;2022-08-18T08:40:43;11.38;;;7.15;;
73909;SDS011;62245;48.070;7.874;2022-08-18T08:43:18;10.10;;;5.38;;
73909;SDS011;62245;48.070;7.874;2022-08-18T08:45:55;7.07;;;4.20;;
73909;SDS011;62245;48.070;7.874;2022-08-18T08:48:22;7.35;;;4.25;;
73909;SDS011;62245;48.070;7.874;2022-08-18T08:51:00;6.40;;;4.28;;
73909;SDS011;62245;48.070;7.874;2022-08-18T08:53:48;7.63;;;4.55;;
73909;SDS011;62245;48.070;7.874;2022-08-18T08:56:22;6.63;;;3.75;;
73909;SDS011;62245;48.070;7.874;2022-08-18T08:58:55;7.43;;;4.55;;
73909;SDS011;62245;48.070;7.874;2022-08-18T09:01:36;6.68;;;3.67;;
73909;SDS011;62245;48.070;7.874;2022-08-18T09:12:23;6.97;;;3.58;;
73909;SDS011;62245;48.070;7.874;2022-08-18T09:20:46;7.32;;;3.85;;
73909;SDS011;62245;48.070;7.874;2022-08-18T09:25:50;6.45;;;3.70;;
73909;SDS011;62245;48.070;7.874;2022-08-18T09:28:19;7.10;;;4.38;;
73909;SDS011;62245;48.070;7.874;2022-08-18T09:41:56;7.28;;;4.75;;
73909;SDS011;62245;48.070;7.874;2022-08-18T09:49:55;6.80;;;4.30;;
73909;SDS011;62245;48.070;7.874;2022-08-18T09:54:51;7.40;;;4.73;;
73909;SDS011;62245;48.070;7.874;2022-08-18T09:57:24;8.85;;;5.65;;
73909;SDS011;62245;48.070;7.874;2022-08-18T09:59:52;7.57;;;4.47;;
73909;SDS011;62245;48.070;7.874;2022-08-18T10:07:39;7.22;;;4.30;;
73909;SDS011;62245;48.070;7.874;2022-08-18T10:21:14;6.20;;;3.65;;
73909;SDS011;62245;48.070;7.874;2022-08-18T10:23:46;5.47;;;3.47;;
73909;SDS011;62245;48.070;7.874;2022-08-18T10:29:03;5.78;;;3.78;;
73909;SDS011;62245;48.070;7.874;2022-08-18T10:32:15;6.40;;;3.65;;
73909;SDS011;62245;48.070;7.874;2022-08-18T10:34:36;6.55;;;4.30;;
73909;SDS011;62245;48.070;7.874;2022-08-18T10:37:29;6.18;;;3.85;;
73909;SDS011;62245;48.070;7.874;2022-08-18T10:42:42;8.63;;;4.55;;
73909;SDS011;62245;48.070;7.874;2022-08-18T10:45:13;8.23;;;4.18;;
73909;SDS011;62245;48.070;7.874;2022-08-18T10:47:44;6.90;;;4.30;;
73909;SDS011;62245;48.070;7.874;2022-08-18T10:50:54;7.05;;;4.40;;
73909;SDS011;62245;48.070;7.874;2022-08-18T10:53:50;7.35;;;4.25;;
73909;SDS011;62245;48.070;7.874;2022-08-18T10:56:39;8.75;;;4.07;;
73909;SDS011;62245;48.070;7.874;2022-08-18T11:05:19;15.43;;;10.00;;
73909;SDS011;62245;48.070;7.874;2022-08-18T11:07:48;8.75;;;5.20;;
73909;SDS011;62245;48.070;7.874;2022-08-18T11:10:19;7.03;;;4.38;;
73909;SDS011;62245;48.070;7.874;2022-08-18T11:29:16;7.72;;;4.85;;
73909;SDS011;62245;48.070;7.874;2022-08-18T11:31:58;6.45;;;4.15;;
73909;SDS011;62245;48.070;7.874;2022-08-18T11:34:36;10.68;;;5.03;;
73909;SDS011;62245;48.070;7.874;2022-08-18T11:37:06;8.30;;;4.75;;
73909;SDS011;62245;48.070;7.874;2022-08-18T11:39:40;7.97;;;4.25;;
73909;SDS011;62245;48.070;7.874;2022-08-18T11:42:09;6.38;;;4.05;;
73909;SDS011;62245;48.070;7.874;2022-08-18T11:44:34;7.13;;;4.30;;
73909;SDS011;62245;48.070;7.874;2022-08-18T11:47:14;12.40;;;7.80;;
73909;SDS011;62245;48.070;7.874;2022-08-18T11:49:51;9.85;;;5.60;;
73909;SDS011;62245;48.070;7.874;2022-08-18T11:52:25;7.28;;;4.40;;
73909;SDS011;62245;48.070;7.874;2022-08-18T11:54:57;7.32;;;4.40;;
73909;SDS011;62245;48.070;7.874;2022-08-18T11:57:38;8.40;;;4.60;;
73909;SDS011;62245;48.070;7.874;2022-08-18T12:03:03;7.80;;;5.85;;
73909;SDS011;62245;48.070;7.874;2022-08-18T12:05:59;10.52;;;5.32;;
73909;SDS011;62245;48.070;7.874;2022-08-18T12:08:36;8.93;;;5.35;;
73909;SDS011;62245;48.070;7.874;2022-08-18T12:11:20;9.50;;;5.70;;
73909;SDS011;62245;48.070;7.874;2022-08-18T12:13:56;7.93;;;4.70;;
73909;SDS011;62245;48.070;7.874;2022-08-18T12:16:32;9.02;;;5.20;;
73909;SDS011;62245;48.070;7.874;2022-08-18T12:19:04;7.80;;;5.10;;
73909;SDS011;62245;48.070;7.874;2022-08-18T12:21:31;8.60;;;5.00;;
73909;SDS011;62245;48.070;7.874;2022-08-18T12:23:57;7.22;;;5.22;;
73909;SDS011;62245;48.070;7.874;2022-08-18T12:26:22;9.10;;;4.70;;
73909;SDS011;62245;48.070;7.874;2022-08-18T12:28:48;7.28;;;5.15;;
73909;SDS011;62245;48.070;7.874;2022-08-18T12:31:13;8.33;;;5.47;;
73909;SDS011;62245;48.070;7.874;2022-08-18T12:33:38;8.37;;;5.50;;
73909;SDS011;62245;48.070;7.874;2022-08-18T12:36:04;10.33;;;6.30;;
73909;SDS011;62245;48.070;7.874;2022-08-18T12:38:33;10.75;;;6.95;;
73909;SDS011;62245;48.070;7.874;2022-08-18T12:43:24;7.30;;;5.80;;
73909;SDS011;62245;48.070;7.874;2022-08-18T12:45:49;8.57;;;5.35;;
73909;SDS011;62245;48.070;7.874;2022-08-18T12:48:15;7.68;;;4.88;;
73909;SDS011;62245;48.070;7.874;2022-08-18T12:50:41;9.48;;;5.13;;
73909;SDS011;62245;48.070;7.874;2022-08-18T12:53:06;9.05;;;5.78;;
73909;SDS011;62245;48.070;7.874;2022-08-18T12:55:33;8.68;;;5.60;;
73909;SDS011;62245;48.070;7.874;2022-08-18T12:58:01;8.48;;;5.32;;
73909;SDS011;62245;48.070;7.874;2022-08-18T13:00:28;10.10;;;5.47;;
73909;SDS011;62245;48.070;7.874;2022-08-18T13:02:53;8.10;;;5.82;;
73909;SDS011;62245;48.070;7.874;2022-08-18T13:05:19;8.45;;;5.22;;
73909;SDS011;62245;48.070;7.874;2022-08-18T13:07:45;10.20;;;6.10;;
73909;SDS011;62245;48.070;7.874;2022-08-18T13:10:10;7.97;;;4.97;;
73909;SDS011;62245;48.070;7.874;2022-08-18T13:12:35;10.07;;;5.77;;
73909;SDS011;62245;48.070;7.874;2022-08-18T13:15:01;9.07;;;5.63;;
73909;SDS011;62245;48.070;7.874;2022-08-18T13:17:27;8.35;;;5.78;;
73909;SDS011;62245;48.070;7.874;2022-08-18T13:19:52;8.63;;;5.67;;
73909;SDS011;62245;48.070;7.874;2022-08-18T13:22:17;8.73;;;5.97;;
73909;SDS011;62245;48.070;7.874;2022-08-18T13:24:43;9.25;;;6.10;;
73909;SDS011;62245;48.070;7.874;2022-08-18T13:27:08;10.73;;;6.57;;
73909;SDS011;62245;48.070;7.874;2022-08-18T13:29:34;10.20;;;7.07;;
73909;SDS011;62245;48.070;7.874;2022-08-18T13:31:59;10.70;;;7.03;;
73909;SDS011;62245;48.070;7.874;2022-08-18T13:34:25;11.27;;;6.93;;
73909;SDS011;62245;48.070;7.874;2022-08-18T13:36:51;13.73;;;6.63;;
73909;SDS011;62245;48.070;7.874;2022-08-18T13:39:18;9.68;;;5.97;;
73909;SDS011;62245;48.070;7.874;2022-08-18T13:41:47;9.55;;;6.50;;
73909;SDS011;62245;48.070;7.874;2022-08-18T13:44:14;9.23;;;6.15;;
73909;SDS011;62245;48.070;7.874;2022-08-18T13:46:42;9.60;;;7.15;;
73909;SDS011;62245;48.070;7.874;2022-08-18T13:49:17;11.23;;;7.28;;
73909;SDS011;62245;48.070;7.874;2022-08-18T13:51:44;9.32;;;6.50;;
73909;SDS011;62245;48.070;7.874;2022-08-18T13:54:15;9.15;;;6.70;;
73909;SDS011;62245;48.070;7.874;2022-08-18T13:56:44;11.52;;;7.95;;
73909;SDS011;62245;48.070;7.874;2022-08-18T13:59:10;10.27;;;6.85;;
73909;SDS011;62245;48.070;7.874;2022-08-18T14:01:36;9.80;;;6.78;;
73909;SDS011;62245;48.070;7.874;2022-08-18T14:04:02;11.52;;;7.03;;
73909;SDS011;62245;48.070;7.874;2022-08-18T14:06:27;10.27;;;6.63;;
73909;SDS011;62245;48.070;7.874;2022-08-18T14:08:52;12.00;;;7.27;;
73909;SDS011;62245;48.070;7.874;2022-08-18T14:11:19;8.90;;;6.72;;
73909;SDS011;62245;48.070;7.874;2022-08-18T14:13:49;11.25;;;6.95;;
73909;SDS011;62245;48.070;7.874;2022-08-18T14:16:15;12.07;;;7.20;;
73909;SDS011;62245;48.070;7.874;2022-08-18T14:18:40;9.47;;;6.50;;
73909;SDS011;62245;48.070;7.874;2022-08-18T14:21:05;10.90;;;6.60;;
73909;SDS011;62245;48.070;7.874;2022-08-18T14:23:49;11.00;;;6.95;;
73909;SDS011;62245;48.070;7.874;2022-08-18T14:26:34;8.98;;;6.70;;
73909;SDS011;62245;48.070;7.874;2022-08-18T14:29:12;11.82;;;8.13;;
73909;SDS011;62245;48.070;7.874;2022-08-18T14:31:37;10.27;;;7.75;;
73909;SDS011;62245;48.070;7.874;2022-08-18T14:34:03;10.10;;;7.07;;
73909;SDS011;62245;48.070;7.874;2022-08-18T14:36:28;11.10;;;6.80;;
73909;SDS011;62245;48.070;7.874;2022-08-18T14:38:53;11.67;;;7.27;;
73909;SDS011;62245;48.070;7.874;2022-08-18T14:41:18;10.40;;;6.40;;
73909;SDS011;62245;48.070;7.874;2022-08-18T14:43:44;10.40;;;6.88;;
73909;SDS011;62245;48.070;7.874;2022-08-18T14:46:12;10.02;;;7.25;;
73909;SDS011;62245;48.070;7.874;2022-08-18T14:48:38;11.18;;;7.28;;
73909;SDS011;62245;48.070;7.874;2022-08-18T14:51:03;11.75;;;7.55;;
73909;SDS011;62245;48.070;7.874;2022-08-18T14:53:31;14.00;;;8.02;;
73909;SDS011;62245;48.070;7.874;2022-08-18T14:55:58;12.27;;;8.57;;
73909;SDS011;62245;48.070;7.874;2022-08-18T14:58:25;11.38;;;7.68;;
73909;SDS011;62245;48.070;7.874;2022-08-18T15:03:23;10.13;;;6.90;;
73909;SDS011;62245;48.070;7.874;2022-08-18T15:05:49;9.88;;;7.15;;
73909;SDS011;62245;48.070;7.874;2022-08-18T15:08:15;11.25;;;7.22;;
73909;SDS011;62245;48.070;7.874;2022-08-18T15:10:40;26.67;;;20.50;;
73909;SDS011;62245;48.070;7.874;2022-08-18T15:13:06;16.25;;;12.05;;
73909;SDS011;62245;48.070;7.874;2022-08-18T15:15:33;11.98;;;8.07;;
73909;SDS011;62245;48.070;7.874;2022-08-18T15:17:58;10.23;;;7.47;;
73909;SDS011;62245;48.070;7.874;2022-08-18T15:20:24;11.95;;;8.25;;
73909;SDS011;62245;48.070;7.874;2022-08-18T15:22:51;11.65;;;8.25;;
73909;SDS011;62245;48.070;7.874;2022-08-18T15:25:35;11.00;;;8.02;;
73909;SDS011;62245;48.070;7.874;2022-08-18T15:28:07;12.65;;;9.15;;
73909;SDS011;62245;48.070;7.874;2022-08-18T15:30:33;11.50;;;8.57;;
73909;SDS011;62245;48.070;7.874;2022-08-18T15:33:01;11.40;;;7.82;;
73909;SDS011;62245;48.070;7.874;2022-08-18T15:35:26;11.43;;;8.37;;
73909;SDS011;62245;48.070;7.874;2022-08-18T15:37:52;14.35;;;9.45;;
73909;SDS011;62245;48.070;7.874;2022-08-18T15:40:19;13.52;;;9.15;;
73909;SDS011;62245;48.070;7.874;2022-08-18T15:42:49;12.50;;;9.15;;
73909;SDS011;62245;48.070;7.874;2022-08-18T15:47:42;13.23;;;9.10;;
73909;SDS011;62245;48.070;7.874;2022-08-18T15:50:10;12.30;;;9.43;;
73909;SDS011;62245;48.070;7.874;2022-08-18T15:52:36;13.77;;;10.63;;
73909;SDS011;62245;48.070;7.874;2022-08-18T15:55:09;13.68;;;10.20;;
73909;SDS011;62245;48.070;7.874;2022-08-18T15:57:34;17.47;;;11.87;;
73909;SDS011;62245;48.070;7.874;2022-08-18T16:00:00;17.37;;;12.27;;
73909;SDS011;62245;48.070;7.874;2022-08-18T16:02:25;15.20;;;10.88;;
73909;SDS011;62245;48.070;7.874;2022-08-18T16:04:51;12.80;;;9.80;;
73909;SDS011;62245;48.070;7.874;2022-08-18T16:07:17;12.30;;;8.27;;
73909;SDS011;62245;48.070;7.874;2022-08-18T16:09:42;11.73;;;8.82;;
73909;SDS011;62245;48.070;7.874;2022-08-18T16:12:08;11.13;;;8.20;;
73909;SDS011;62245;48.070;7.874;2022-08-18T16:14:37;12.80;;;9.60;;
73909;SDS011;62245;48.070;7.874;2022-08-18T16:17:03;13.45;;;10.13;;
73909;SDS011;62245;48.070;7.874;2022-08-18T16:19:28;14.45;;;9.88;;
73909;SDS011;62245;48.070;7.874;2022-08-18T16:21:54;14.07;;;10.03;;
73909;SDS011;62245;48.070;7.874;2022-08-18T16:24:20;12.52;;;9.27;;
73909;SDS011;62245;48.070;7.874;2022-08-18T16:26:47;14.52;;;9.35;;
73909;SDS011;62245;48.070;7.874;2022-08-18T16:29:13;13.15;;;9.32;;
73909;SDS011;62245;48.070;7.874;2022-08-18T16:31:38;13.07;;;9.30;;
73909;SDS011;62245;48.070;7.874;2022-08-18T16:34:04;14.38;;;9.63;;
73909;SDS011;62245;48.070;7.874;2022-08-18T16:36:30;13.77;;;10.18;;
73909;SDS011;62245;48.070;7.874;2022-08-18T16:38:55;15.83;;;10.63;;
73909;SDS011;62245;48.070;7.874;2022-08-18T16:41:21;13.13;;;10.00;;
73909;SDS011;62245;48.070;7.874;2022-08-18T16:43:46;14.00;;;10.05;;
73909;SDS011;62245;48.070;7.874;2022-08-18T16:46:13;13.65;;;9.85;;
73909;SDS011;62245;48.070;7.874;2022-08-18T16:48:45;12.93;;;10.13;;
73909;SDS011;62245;48.070;7.874;2022-08-18T16:51:14;15.02;;;10.02;;
73909;SDS011;62245;48.070;7.874;2022-08-18T16:53:42;14.20;;;10.43;;
73909;SDS011;62245;48.070;7.874;2022-08-18T16:56:13;13.45;;;9.30;;
73909;SDS011;62245;48.070;7.874;2022-08-18T16:58:43;13.98;;;10.43;;
73909;SDS011;62245;48.070;7.874;2022-08-18T17:01:27;16.10;;;10.57;;
73909;SDS011;62245;48.070;7.874;2022-08-18T17:04:12;15.18;;;10.77;;
73909;SDS011;62245;48.070;7.874;2022-08-18T17:06:39;12.07;;;8.95;;
73909;SDS011;62245;48.070;7.874;2022-08-18T17:09:05;13.43;;;9.65;;
73909;SDS011;62245;48.070;7.874;2022-08-18T17:11:31;13.23;;;9.18;;
73909;SDS011;62245;48.070;7.874;2022-08-18T17:13:57;11.23;;;8.60;;
73909;SDS011;62245;48.070;7.874;2022-08-18T17:16:25;13.20;;;9.85;;
73909;SDS011;62245;48.070;7.874;2022-08-18T17:18:52;12.70;;;8.95;;
73909;SDS011;62245;48.070;7.874;2022-08-18T17:21:20;13.40;;;9.52;;
73909;SDS011;62245;48.070;7.874;2022-08-18T17:23:47;13.95;;;9.35;;
73909;SDS011;62245;48.070;7.874;2022-08-18T17:26:16;14.93;;;10.80;;
73909;SDS011;62245;48.070;7.874;2022-08-18T17:28:55;12.35;;;9.05;;
73909;SDS011;62245;48.070;7.874;2022-08-18T17:31:25;13.07;;;9.35;;
73909;SDS011;62245;48.070;7.874;2022-08-18T17:33:52;13.35;;;9.50;;
73909;SDS011;62245;48.070;7.874;2022-08-18T17:36:25;12.63;;;8.77;;
73909;SDS011;62245;48.070;7.874;2022-08-18T17:39:02;13.20;;;9.02;;
73909;SDS011;62245;48.070;7.874;2022-08-18T17:41:32;13.35;;;9.05;;
73909;SDS011;62245;48.070;7.874;2022-08-18T17:46:43;12.53;;;8.07;;
73909;SDS011;62245;48.070;7.874;2022-08-18T17:49:14;11.90;;;7.85;;
73909;SDS011;62245;48.070;7.874;2022-08-18T17:51:48;11.48;;;8.63;;
73909;SDS011;62245;48.070;7.874;2022-08-18T17:57:07;12.93;;;9.30;;
73909;SDS011;62245;48.070;7.874;2022-08-18T18:02:19;13.40;;;8.73;;
73909;SDS011;62245;48.070;7.874;2022-08-18T18:04:47;12.65;;;8.30;;
73909;SDS011;62245;48.070;7.874;2022-08-18T18:07:20;11.55;;;8.38;;
73909;SDS011;62245;48.070;7.874;2022-08-18T18:09:50;12.32;;;8.43;;
73909;SDS011;62245;48.070;7.874;2022-08-18T18:12:20;14.68;;;9.23;;
73909;SDS011;62245;48.070;7.874;2022-08-18T18:14:48;13.82;;;9.13;;
73909;SDS011;62245;48.070;7.874;2022-08-18T18:17:18;15.05;;;10.05;;
73909;SDS011;62245;48.070;7.874;2022-08-18T18:22:18;16.15;;;9.68;;
73909;SDS011;62245;48.070;7.874;2022-08-18T18:24:54;12.57;;;8.57;;
73909;SDS011;62245;48.070;7.874;2022-08-18T18:27:24;12.55;;;8.57;;
73909;SDS011;62245;48.070;7.874;2022-08-18T18:38:24;13.25;;;9.82;;
73909;SDS011;62245;48.070;7.874;2022-08-18T18:40:54;12.68;;;8.85;;
73909;SDS011;62245;48.070;7.874;2022-08-18T18:43:27;15.20;;;9.65;;
73909;SDS011;62245;48.070;7.874;2022-08-18T18:48:25;11.13;;;8.00;;
73909;SDS011;62245;48.070;7.874;2022-08-18T18:51:00;12.95;;;8.60;;
73909;SDS011;62245;48.070;7.874;2022-08-18T18:56:21;11.13;;;7.25;;
73909;SDS011;62245;48.070;7.874;2022-08-18T19:01:55;13.10;;;8.95;;
73909;SDS011;62245;48.070;7.874;2022-08-18T19:04:37;11.95;;;8.88;;
73909;SDS011;62245;48.070;7.874;2022-08-18T19:07:12;14.27;;;8.75;;
73909;SDS011;62245;48.070;7.874;2022-08-18T19:09:50;15.27;;;10.80;;
73909;SDS011;62245;48.070;7.874;2022-08-18T19:12:38;15.40;;;10.35;;
73909;SDS011;62245;48.070;7.874;2022-08-18T19:15:11;13.65;;;9.52;;
73909;SDS011;62245;48.070;7.874;2022-08-18T19:17:46;13.15;;;9.48;;
73909;SDS011;62245;48.070;7.874;2022-08-18T19:20:38;12.07;;;9.30;;
73909;SDS011;62245;48.070;7.874;2022-08-18T19:26:06;11.27;;;8.02;;
73909;SDS011;62245;48.070;7.874;2022-08-18T19:31:06;12.63;;;8.60;;
73909;SDS011;62245;48.070;7.874;2022-08-18T19:33:44;13.48;;;8.98;;
73909;SDS011;62245;48.070;7.874;2022-08-18T19:39:25;11.63;;;8.80;;
73909;SDS011;62245;48.070;7.874;2022-08-18T19:44:36;13.77;;;8.75;;
73909;SDS011;62245;48.070;7.874;2022-08-18T19:47:17;15.05;;;9.75;;
73909;SDS011;62245;48.070;7.874;2022-08-18T19:50:14;14.98;;;8.93;;
73909;SDS011;62245;48.070;7.874;2022-08-18T19:58:22;12.50;;;8.20;;
73909;SDS011;62245;48.070;7.874;2022-08-18T20:01:27;12.57;;;8.57;;
73909;SDS011;62245;48.070;7.874;2022-08-18T20:03:55;13.35;;;8.90;;
73909;SDS011;62245;48.070;7.874;2022-08-18T20:12:23;11.73;;;8.93;;
73909;SDS011;62245;48.070;7.874;2022-08-18T20:14:58;10.13;;;6.95;;
73909;SDS011;62245;48.070;7.874;2022-08-18T20:17:25;10.40;;;6.90;;
73909;SDS011;62245;48.070;7.874;2022-08-18T20:24:56;12.82;;;8.85;;
73909;SDS011;62245;48.070;7.874;2022-08-18T20:32:40;10.43;;;7.18;;
73909;SDS011;62245;48.070;7.874;2022-08-18T20:35:14;9.67;;;6.63;;
73909;SDS011;62245;48.070;7.874;2022-08-18T20:37:43;10.88;;;6.38;;
73909;SDS011;62245;48.070;7.874;2022-08-18T20:40:09;9.30;;;6.55;;
73909;SDS011;62245;48.070;7.874;2022-08-18T20:43:04;11.40;;;7.18;;
73909;SDS011;62245;48.070;7.874;2022-08-18T20:45:47;10.48;;;7.15;;
73909;SDS011;62245;48.070;7.874;2022-08-18T20:48:29;9.95;;;6.57;;
73909;SDS011;62245;48.070;7.874;2022-08-18T20:51:09;9.85;;;7.10;;
73909;SDS011;62245;48.070;7.874;2022-08-18T20:59:20;11.25;;;7.35;;
73909;SDS011;62245;48.070;7.874;2022-08-18T21:01:52;10.48;;;7.97;;
73909;SDS011;62245;48.070;7.874;2022-08-18T21:04:35;10.65;;;7.38;;
73909;SDS011;62245;48.070;7.874;2022-08-18T21:07:14;10.98;;;7.57;;
73909;SDS011;62245;48.070;7.874;2022-08-18T21:09:51;11.15;;;7.97;;
73909;SDS011;62245;48.070;7.874;2022-08-18T21:12:36;11.13;;;6.43;;
73909;SDS011;62245;48.070;7.874;2022-08-18T21:15:04;9.57;;;6.47;;
73909;SDS011;62245;48.070;7.874;2022-08-18T21:17:34;9.90;;;6.45;;
73909;SDS011;62245;48.070;7.874;2022-08-18T21:20:08;9.82;;;6.63;;
73909;SDS011;62245;48.070;7.874;2022-08-18T21:22:38;9.07;;;6.10;;
73909;SDS011;62245;48.070;7.874;2022-08-18T21:25:07;8.70;;;5.70;;